Time;durP1;ratioP1;P1;durP2;ratioP2;P2;SDS_P1;SDS_P2;PMS_P1;PMS_P2;Temp;Humidity;BMP_temperature;BMP_pressure;BME280_temperature;BME280_humidity;BME280_pressure;Samples;Min_cycle;Max_cycle;Signal;HPM_P1;HPM_P2
2023/04/24 00:01:42;;;;;;;3.88;3.58;;;10.90;99.90;;;;;;5043544;28;20082;-44
2023/04/24 00:04:10;;;;;;;3.55;3.25;;;10.90;99.90;;;;;;5042946;28;20029;-44
2023/04/24 00:06:36;;;;;;;4.15;3.78;;;10.90;99.90;;;;;;5041960;28;20033;-43
2023/04/24 00:09:03;;;;;;;3.67;3.38;;;10.90;99.90;;;;;;5042700;28;20032;-43
2023/04/24 00:11:32;;;;;;;3.75;3.45;;;10.90;99.90;;;;;;5042764;28;20029;-44
2023/04/24 00:13:58;;;;;;;3.97;3.67;;;10.90;99.90;;;;;;5042077;28;20158;-44
2023/04/24 00:16:23;;;;;;;4.47;4.18;;;10.90;99.90;;;;;;5042484;28;20080;-44
2023/04/24 00:18:49;;;;;;;4.20;3.90;;;11.00;99.90;;;;;;5043163;28;20033;-44
2023/04/24 00:21:17;;;;;;;3.92;3.53;;;10.90;99.90;;;;;;5042045;28;20525;-44
2023/04/24 00:23:43;;;;;;;4.07;3.78;;;10.90;99.90;;;;;;5042850;28;20199;-44
2023/04/24 00:26:09;;;;;;;3.35;3.05;;;10.90;99.90;;;;;;5042077;28;20028;-43
2023/04/24 00:28:35;;;;;;;2.83;2.63;;;10.90;99.90;;;;;;5041411;28;20029;-44
2023/04/24 00:31:00;;;;;;;2.42;2.22;;;10.90;99.90;;;;;;5042272;28;20025;-44
2023/04/24 00:33:29;;;;;;;2.40;2.20;;;10.90;99.90;;;;;;5041757;28;20676;-44
2023/04/24 00:35:54;;;;;;;4.75;1.92;;;10.90;99.90;;;;;;5042008;28;20032;-43
2023/04/24 00:38:20;;;;;;;1.73;1.60;;;10.90;99.90;;;;;;5042530;28;20485;-42
2023/04/24 00:40:45;;;;;;;1.70;1.50;;;10.90;99.90;;;;;;5042762;28;20021;-43
2023/04/24 00:43:11;;;;;;;1.63;1.52;;;10.90;99.90;;;;;;5042523;28;20460;-44
2023/04/24 00:45:37;;;;;;;2.08;1.50;;;10.90;99.90;;;;;;5042442;28;20517;-43
2023/04/24 00:48:04;;;;;;;1.60;1.50;;;10.90;99.90;;;;;;5041882;28;20124;-43
2023/04/24 00:50:30;;;;;;;2.00;1.80;;;10.80;99.90;;;;;;5041160;28;20064;-44
2023/04/24 00:52:56;;;;;;;3.40;1.88;;;10.80;99.90;;;;;;5042279;28;20094;-44
2023/04/24 00:55:21;;;;;;;2.13;1.92;;;10.90;99.90;;;;;;5041874;28;20514;-43
2023/04/24 00:57:48;;;;;;;2.58;1.70;;;10.80;99.90;;;;;;5041261;28;20135;-44
2023/04/24 01:00:15;;;;;;;2.22;2.13;;;10.80;99.90;;;;;;5042683;28;20021;-43
2023/04/24 01:02:44;;;;;;;2.10;2.00;;;10.80;99.90;;;;;;5041519;28;20098;-44
2023/04/24 01:05:11;;;;;;;2.50;2.30;;;10.80;99.90;;;;;;5022948;28;20060;-44
2023/04/24 01:07:38;;;;;;;3.15;2.95;;;10.80;99.90;;;;;;5036563;28;20029;-44
2023/04/24 01:10:04;;;;;;;4.07;3.70;;;10.80;99.90;;;;;;5041524;28;20763;-43
2023/04/24 01:12:30;;;;;;;3.60;3.30;;;10.80;99.90;;;;;;5041358;28;20037;-44
2023/04/24 01:14:56;;;;;;;4.32;3.95;;;10.80;99.90;;;;;;5041765;28;20357;-43
2023/04/24 01:17:22;;;;;;;5.20;4.70;;;10.80;99.90;;;;;;5041322;28;20392;-44
2023/04/24 01:19:47;;;;;;;7.80;6.90;;;10.80;99.90;;;;;;5041870;28;20016;-43
2023/04/24 01:22:14;;;;;;;8.32;7.50;;;10.80;99.90;;;;;;5042077;28;20544;-43
2023/04/24 01:24:40;;;;;;;8.70;7.80;;;10.90;99.90;;;;;;5041633;28;20017;-44
2023/04/24 01:27:07;;;;;;;8.48;7.68;;;10.90;99.90;;;;;;5041497;28;20052;-43
2023/04/24 01:29:34;;;;;;;9.82;8.25;;;10.80;99.90;;;;;;5041652;28;20114;-43
2023/04/24 01:31:59;;;;;;;9.40;8.45;;;10.90;99.90;;;;;;5040700;28;20052;-43
2023/04/24 01:34:26;;;;;;;9.13;7.63;;;10.80;99.90;;;;;;5040846;28;20987;-44
2023/04/24 01:36:52;;;;;;;7.93;7.13;;;10.80;99.90;;;;;;5041881;28;20113;-43
2023/04/24 01:39:17;;;;;;;7.90;7.07;;;10.80;99.90;;;;;;5041398;28;20116;-44
2023/04/24 01:41:43;;;;;;;6.93;6.10;;;10.70;99.90;;;;;;5042004;28;20025;-44
2023/04/24 01:44:08;;;;;;;5.72;5.15;;;10.70;99.90;;;;;;5041086;28;20020;-44
2023/04/24 01:46:35;;;;;;;5.85;5.25;;;10.70;99.90;;;;;;5040440;28;20033;-44
2023/04/24 01:49:01;;;;;;;6.13;5.15;;;10.70;99.90;;;;;;5040948;28;20035;-44
2023/04/24 01:51:27;;;;;;;5.72;5.22;;;10.60;99.90;;;;;;5041134;28;20079;-44
2023/04/24 01:53:53;;;;;;;4.43;4.03;;;10.60;99.90;;;;;;5040008;28;20037;-44
2023/04/24 01:56:21;;;;;;;4.13;3.65;;;10.60;99.90;;;;;;5040891;28;20150;-44
2023/04/24 01:58:47;;;;;;;4.68;4.25;;;10.60;99.90;;;;;;5040248;28;20068;-44
2023/04/24 02:01:20;;;;;;;4.32;3.92;;;10.60;99.90;;;;;;5041275;28;20104;-44
2023/04/24 02:03:45;;;;;;;;;;;10.60;99.90;;;;;;5041040;28;20107;-43
2023/04/24 02:06:11;;;;;;;6.13;5.10;;;10.70;99.90;;;;;;5040173;28;19999;-44
2023/04/24 02:08:36;;;;;;;5.40;4.90;;;10.70;99.90;;;;;;5040549;28;20071;-44
2023/04/24 02:11:02;;;;;;;6.43;5.82;;;10.70;99.90;;;;;;5040938;28;20116;-44
2023/04/24 02:13:28;;;;;;;7.13;6.43;;;10.60;99.90;;;;;;5039938;28;20068;-43
2023/04/24 02:15:53;;;;;;;8.88;7.75;;;10.60;99.90;;;;;;5040590;28;20017;-44
2023/04/24 02:18:19;;;;;;;7.03;6.32;;;10.60;99.90;;;;;;5041623;28;20044;-44
2023/04/24 02:20:45;;;;;;;7.60;6.80;;;10.60;99.90;;;;;;5040382;28;20055;-44
2023/04/24 02:23:11;;;;;;;11.32;8.50;;;10.60;99.90;;;;;;5041429;28;20048;-44
2023/04/24 02:25:39;;;;;;;9.20;8.30;;;10.60;99.90;;;;;;5040570;28;20025;-43
2023/04/24 02:28:05;;;;;;;8.82;7.93;;;10.70;99.90;;;;;;5040199;28;20017;-43
2023/04/24 02:30:30;;;;;;;8.80;7.90;;;10.70;99.90;;;;;;5040567;28;20060;-43
2023/04/24 02:32:56;;;;;;;15.25;12.32;;;10.70;99.90;;;;;;5041013;28;20440;-44
2023/04/24 02:35:22;;;;;;;14.70;13.18;;;10.70;99.90;;;;;;5040309;28;20609;-44
2023/04/24 02:37:47;;;;;;;17.33;14.93;;;10.70;99.90;;;;;;5041266;28;20028;-44
2023/04/24 02:40:13;;;;;;;18.85;16.20;;;10.60;99.90;;;;;;5041362;28;20010;-44
2023/04/24 02:42:39;;;;;;;17.85;15.77;;;10.60;99.90;;;;;;5040097;28;20115;-43
2023/04/24 02:45:05;;;;;;;16.70;14.90;;;10.60;99.90;;;;;;5040931;28;20029;-43
2023/04/24 02:47:30;;;;;;;16.55;14.85;;;10.60;99.90;;;;;;5040760;28;20193;-44
2023/04/24 02:49:56;;;;;;;17.52;15.63;;;10.50;99.90;;;;;;5040366;28;20770;-44
2023/04/24 02:52:21;;;;;;;17.17;14.20;;;10.50;99.90;;;;;;5044551;28;20162;-43
2023/04/24 02:54:47;;;;;;;17.38;15.35;;;10.50;99.90;;;;;;5044267;28;20040;-43
2023/04/24 02:57:13;;;;;;;17.90;14.82;;;10.50;99.90;;;;;;5044185;28;20021;-43
2023/04/24 02:59:38;;;;;;;17.50;15.60;;;10.50;99.90;;;;;;5044152;28;20105;-43
2023/04/24 03:02:04;;;;;;;15.20;13.57;;;10.50;99.90;;;;;;5044166;28;20021;-43
2023/04/24 03:04:29;;;;;;;16.42;13.70;;;10.50;99.90;;;;;;5044930;28;20526;-43
2023/04/24 03:06:55;;;;;;;16.63;12.63;;;10.50;99.90;;;;;;5044315;28;20037;-43
2023/04/24 03:09:21;;;;;;;13.90;12.38;;;10.50;99.90;;;;;;5044104;28;20495;-43
2023/04/24 03:11:48;;;;;;;14.38;12.68;;;10.50;99.90;;;;;;5043651;28;20017;-43
2023/04/24 03:14:14;;;;;;;11.98;10.70;;;10.50;99.90;;;;;;5043871;28;20766;-43
2023/04/24 03:16:39;;;;;;;13.65;12.15;;;10.50;99.90;;;;;;5043295;28;20064;-43
2023/04/24 03:19:05;;;;;;;13.98;12.45;;;10.60;99.90;;;;;;5044301;28;20021;-43
2023/04/24 03:21:30;;;;;;;13.80;12.27;;;10.60;99.90;;;;;;5044050;28;20172;-42
2023/04/24 03:23:56;;;;;;;13.88;12.02;;;10.60;99.90;;;;;;5043555;28;20107;-43
2023/04/24 03:26:21;;;;;;;17.75;13.70;;;10.60;99.90;;;;;;5044311;28;20706;-44
2023/04/24 03:28:47;;;;;;;14.90;13.30;;;10.60;99.90;;;;;;5044134;28;20476;-43
2023/04/24 03:31:13;;;;;;;13.65;12.15;;;10.50;99.90;;;;;;5043214;28;20634;-43
2023/04/24 03:33:38;;;;;;;15.27;12.70;;;10.50;99.90;;;;;;5043757;28;20037;-43
2023/04/24 03:36:04;;;;;;;16.50;14.55;;;10.50;99.90;;;;;;5043929;28;20025;-43
2023/04/24 03:38:30;;;;;;;17.95;14.90;;;10.50;99.90;;;;;;5043143;28;20036;-42
2023/04/24 03:40:55;;;;;;;16.95;14.13;;;10.50;99.90;;;;;;5043823;28;20017;-43
2023/04/24 03:43:21;;;;;;;18.20;15.13;;;10.40;99.90;;;;;;5043617;28;20025;-43
2023/04/24 03:45:47;;;;;;;16.67;14.98;;;10.40;99.90;;;;;;5042766;28;20025;-43
2023/04/24 03:48:12;;;;;;;18.02;15.57;;;10.40;99.90;;;;;;5044128;28;20094;-43
2023/04/24 03:50:40;;;;;;;18.95;16.05;;;10.40;99.90;;;;;;5043309;28;20053;-45
2023/04/24 03:53:06;;;;;;;22.42;18.42;;;10.40;99.90;;;;;;5042768;28;20067;-43
2023/04/24 03:55:31;;;;;;;24.17;19.77;;;10.40;99.90;;;;;;5044105;28;20147;-43
2023/04/24 03:57:57;;;;;;;21.63;18.10;;;10.30;99.90;;;;;;5043572;28;20037;-43
2023/04/24 04:00:26;;;;;;;24.15;20.17;;;10.40;99.90;;;;;;5043535;28;20106;-44
2023/04/24 04:02:54;;;;;;;20.80;17.35;;;10.30;99.90;;;;;;5043114;28;20028;-43
2023/04/24 04:05:20;;;;;;;25.60;20.88;;;10.30;99.90;;;;;;5043636;28;20032;-43
2023/04/24 04:07:45;;;;;;;24.45;21.38;;;10.30;99.90;;;;;;5043303;28;20662;-43
2023/04/24 04:10:11;;;;;;;27.73;23.48;;;10.30;99.90;;;;;;5043824;28;20029;-43
2023/04/24 04:12:49;;;;;;;25.90;21.67;;;10.30;99.90;;;;;;5042879;28;20190;-43
2023/04/24 04:15:14;;;;;;;26.02;21.55;;;10.30;99.90;;;;;;5033165;28;20029;-43
2023/04/24 04:17:40;;;;;;;26.95;20.25;;;10.30;99.90;;;;;;5043362;28;20021;-43
2023/04/24 04:20:09;;;;;;;22.70;19.48;;;10.20;99.90;;;;;;5042353;28;20086;-43
2023/04/24 04:22:35;;;;;;;27.73;23.38;;;10.20;99.90;;;;;;5043132;28;20072;-43
2023/04/24 04:25:01;;;;;;;24.83;21.75;;;10.20;99.90;;;;;;5043053;28;20057;-43
2023/04/24 04:27:26;;;;;;;26.05;20.73;;;10.20;99.90;;;;;;5042536;28;20108;-43
2023/04/24 04:29:52;;;;;;;25.77;21.00;;;10.20;99.90;;;;;;5042959;28;20127;-44
2023/04/24 04:32:18;;;;;;;25.35;20.77;;;10.20;99.90;;;;;;5043080;28;20036;-43
2023/04/24 04:34:45;;;;;;;25.40;19.48;;;10.20;99.90;;;;;;5041878;28;20041;-43
2023/04/24 04:37:12;;;;;;;22.25;19.85;;;10.10;99.90;;;;;;5043500;28;20033;-43
2023/04/24 04:39:38;;;;;;;25.33;20.88;;;10.20;99.90;;;;;;5042791;28;20128;-43
2023/04/24 04:42:03;;;;;;;22.00;19.48;;;10.10;99.90;;;;;;5042413;28;20033;-43
2023/04/24 04:44:30;;;;;;;22.88;19.83;;;10.10;99.90;;;;;;5042761;28;20029;-43
2023/04/24 04:46:56;;;;;;;20.38;18.17;;;10.10;99.90;;;;;;5042573;28;20021;-43
2023/04/24 04:49:23;;;;;;;19.63;17.05;;;10.10;99.90;;;;;;5041850;28;20047;-43
2023/04/24 04:51:55;;;;;;;22.90;19.58;;;10.10;99.90;;;;;;5042512;28;20076;-43
2023/04/24 04:54:20;;;;;;;25.40;19.63;;;10.10;99.90;;;;;;5043124;28;20044;-43
2023/04/24 04:56:49;;;;;;;18.17;16.05;;;10.10;99.90;;;;;;5042442;28;20021;-43
2023/04/24 04:59:18;;;;;;;20.20;17.08;;;10.10;99.90;;;;;;5042955;28;20032;-43
2023/04/24 05:01:46;;;;;;;21.60;17.67;;;10.10;99.90;;;;;;5041694;28;20013;-42
2023/04/24 05:04:12;;;;;;;15.18;13.57;;;10.10;99.90;;;;;;5043124;28;20027;-43
2023/04/24 05:06:37;;;;;;;18.88;16.88;;;10.10;99.90;;;;;;5042816;28;20037;-44
2023/04/24 05:09:07;;;;;;;19.92;17.92;;;10.10;99.90;;;;;;5042326;28;20028;-43
2023/04/24 05:11:32;;;;;;;16.02;14.40;;;10.10;99.90;;;;;;5042000;28;20040;-44
2023/04/24 05:13:58;;;;;;;21.92;17.73;;;10.10;99.90;;;;;;5041117;28;20064;-43
2023/04/24 05:16:23;;;;;;;18.23;16.42;;;10.10;99.90;;;;;;5041196;28;20067;-44
2023/04/24 05:18:49;;;;;;;17.70;14.73;;;10.10;99.90;;;;;;5042085;28;20029;-44
2023/04/24 05:21:15;;;;;;;16.92;15.18;;;10.10;99.90;;;;;;5042171;28;20040;-43
2023/04/24 05:23:40;;;;;;;19.10;14.88;;;10.10;99.90;;;;;;5041553;28;20102;-43
2023/04/24 05:26:15;;;;;;;15.27;12.98;;;10.10;99.90;;;;;;5041915;28;20638;-43
2023/04/24 05:28:40;;;;;;;17.08;13.18;;;10.10;99.90;;;;;;5042205;28;20479;-43
2023/04/24 05:31:06;;;;;;;15.13;13.13;;;10.10;99.90;;;;;;5041418;28;20039;-43
2023/04/24 05:33:32;;;;;;;14.45;12.38;;;10.10;99.90;;;;;;5041468;28;20029;-43
2023/04/24 05:35:57;;;;;;;12.40;11.07;;;10.10;99.90;;;;;;5040075;28;20473;-44
2023/04/24 05:38:23;;;;;;;13.20;11.40;;;10.20;99.90;;;;;;5042889;28;20059;-44
2023/04/24 05:40:48;;;;;;;13.35;11.20;;;10.10;99.90;;;;;;5054715;28;20021;-43
2023/04/24 05:43:14;;;;;;;10.93;9.45;;;10.10;99.90;;;;;;5038276;28;20021;-44
2023/04/24 05:45:40;;;;;;;9.80;8.75;;;10.10;99.90;;;;;;5039303;28;20082;-43
2023/04/24 05:48:08;;;;;;;10.10;8.98;;;10.10;99.90;;;;;;5039803;28;20025;-43
2023/04/24 05:50:34;;;;;;;9.25;8.20;;;10.10;99.90;;;;;;5039603;28;20045;-44
2023/04/24 05:53:01;;;;;;;8.80;7.90;;;10.20;99.90;;;;;;5038487;28;20071;-44
2023/04/24 05:55:27;;;;;;;8.93;8.02;;;10.20;99.90;;;;;;5039617;28;20026;-44
2023/04/24 05:57:52;;;;;;;9.63;8.23;;;10.20;99.90;;;;;;5039235;28;20048;-43
2023/04/24 06:00:19;;;;;;;9.45;8.43;;;10.20;99.90;;;;;;5039430;28;20033;-44
2023/04/24 06:02:45;;;;;;;8.82;7.88;;;10.30;99.90;;;;;;5038922;28;20048;-44
2023/04/24 06:05:11;;;;;;;9.23;8.23;;;10.30;99.90;;;;;;5039692;28;20039;-44
2023/04/24 06:07:37;;;;;;;8.45;7.10;;;10.30;99.90;;;;;;5038868;28;20024;-43
2023/04/24 06:10:05;;;;;;;8.02;7.03;;;10.30;99.90;;;;;;5039669;28;20112;-43
2023/04/24 06:12:31;;;;;;;9.35;7.05;;;10.40;99.90;;;;;;5038368;28;20059;-43
2023/04/24 06:14:56;;;;;;;7.97;6.82;;;10.30;99.90;;;;;;5039707;28;20485;-44
2023/04/24 06:17:22;;;;;;;8.02;6.95;;;10.30;99.90;;;;;;5039454;28;20032;-43
2023/04/24 06:19:48;;;;;;;7.80;6.90;;;10.40;99.90;;;;;;5038529;28;20028;-43
2023/04/24 06:22:17;;;;;;;6.80;6.10;;;10.40;99.90;;;;;;5039616;28;20051;-44
2023/04/24 06:24:42;;;;;;;6.90;6.20;;;10.40;99.90;;;;;;5039875;28;20029;-43
2023/04/24 06:27:08;;;;;;;7.13;5.93;;;10.40;99.90;;;;;;5039445;28;20075;-43
2023/04/24 06:29:34;;;;;;;6.60;5.95;;;10.40;99.90;;;;;;5040185;28;20056;-43
2023/04/24 06:31:59;;;;;;;7.70;6.38;;;10.50;99.90;;;;;;5040118;28;20025;-43
2023/04/24 06:34:25;;;;;;;6.25;5.43;;;10.50;99.90;;;;;;5038837;28;20106;-43
2023/04/24 06:36:51;;;;;;;6.45;5.85;;;10.50;99.90;;;;;;5040045;28;20132;-43
2023/04/24 06:39:25;;;;;;;6.30;5.47;;;10.60;99.90;;;;;;5039931;28;20089;-43
2023/04/24 06:41:51;;;;;;;5.75;5.15;;;10.60;99.90;;;;;;5039384;28;20029;-43
2023/04/24 06:44:19;;;;;;;5.03;4.53;;;10.70;99.90;;;;;;5039797;28;20048;-43
2023/04/24 06:46:45;;;;;;;4.55;4.13;;;10.70;99.90;;;;;;5039962;28;20025;-43
2023/04/24 06:49:11;;;;;;;4.80;4.30;;;10.70;99.90;;;;;;5038660;28;20762;-42
2023/04/24 06:51:36;;;;;;;4.95;4.03;;;10.70;99.90;;;;;;5039834;28;20037;-43
2023/04/24 06:54:02;;;;;;;4.15;3.63;;;10.70;99.90;;;;;;5038925;28;20029;-43
2023/04/24 06:56:29;;;;;;;4.43;4.03;;;10.70;99.90;;;;;;5039145;28;20090;-43
2023/04/24 06:58:55;;;;;;;4.10;3.50;;;10.70;99.90;;;;;;5039414;28;20029;-44
2023/04/24 07:01:20;;;;;;;3.47;3.10;;;10.80;99.90;;;;;;5039945;28;20025;-43
2023/04/24 07:03:46;;;;;;;3.15;2.80;;;10.80;99.90;;;;;;5039780;28;20379;-43
2023/04/24 07:06:12;;;;;;;3.88;2.83;;;10.80;99.90;;;;;;5039383;28;20802;-43
2023/04/24 07:08:38;;;;;;;4.43;2.53;;;10.70;99.90;;;;;;5039055;28;20028;-43
2023/04/24 07:11:04;;;;;;;2.80;2.47;;;10.70;99.90;;;;;;5039081;28;20063;-43
2023/04/24 07:13:29;;;;;;;2.75;2.42;;;10.70;99.90;;;;;;5039200;28;20103;-43
2023/04/24 07:15:58;;;;;;;2.30;2.10;;;10.60;99.90;;;;;;5038616;28;20381;-43
2023/04/24 07:18:24;;;;;;;2.15;1.95;;;10.60;99.90;;;;;;5039377;28;20148;-43
2023/04/24 07:20:52;;;;;;;3.20;1.90;;;10.50;99.90;;;;;;5039311;28;20017;-43
2023/04/24 07:23:19;;;;;;;2.20;1.75;;;10.40;99.90;;;;;;5038997;28;20140;-43
2023/04/24 07:25:44;;;;;;;1.40;1.30;;;10.30;99.90;;;;;;5038715;28;20112;-43
2023/04/24 07:28:10;;;;;;;1.25;1.15;;;10.30;99.90;;;;;;5040055;28;20021;-43
2023/04/24 07:30:35;;;;;;;4.22;1.60;;;10.30;99.90;;;;;;5038602;28;20029;-43
2023/04/24 07:33:01;;;;;;;1.20;1.10;;;10.20;99.90;;;;;;5039088;28;20511;-43
2023/04/24 07:35:26;;;;;;;2.55;1.27;;;10.20;99.90;;;;;;5038142;28;20039;-43
2023/04/24 07:37:55;;;;;;;2.03;1.38;;;10.10;99.90;;;;;;5041495;28;20111;-43
2023/04/24 07:40:21;;;;;;;1.48;1.38;;;10.10;99.90;;;;;;5043291;28;20028;-43
2023/04/24 07:42:48;;;;;;;2.20;2.00;;;10.10;99.90;;;;;;5042355;28;20047;-43
2023/04/24 07:45:17;;;;;;;3.13;2.65;;;10.00;99.90;;;;;;5042451;28;20090;-42
2023/04/24 07:47:45;;;;;;;3.33;2.70;;;9.90;99.90;;;;;;5043088;28;20065;-43
2023/04/24 07:50:12;;;;;;;3.70;3.30;;;9.90;99.90;;;;;;5042689;28;20098;-42
2023/04/24 07:52:38;;;;;;;4.75;4.20;;;9.80;99.90;;;;;;5042130;28;20028;-43
2023/04/24 07:55:04;;;;;;;4.93;3.95;;;9.80;99.90;;;;;;5041925;28;20602;-43
2023/04/24 07:57:30;;;;;;;8.18;5.38;;;9.80;99.90;;;;;;5041864;28;20144;-42
2023/04/24 07:59:55;;;;;;;8.20;6.13;;;9.80;99.90;;;;;;5042268;28;20906;-42
2023/04/24 08:02:26;;;;;;;8.27;6.07;;;9.70;99.90;;;;;;5043378;28;20033;-43
2023/04/24 08:04:54;;;;;;;9.15;7.40;;;9.70;99.90;;;;;;5042162;28;20033;-43
2023/04/24 08:07:20;;;;;;;10.30;6.43;;;9.60;99.90;;;;;;5042322;28;20040;-42
2023/04/24 08:09:48;;;;;;;9.38;7.00;;;9.50;99.90;;;;;;5042205;28;20048;-43
2023/04/24 08:12:14;;;;;;;12.13;7.57;;;9.50;99.90;;;;;;5041795;28;20047;-43
2023/04/24 08:14:40;;;;;;;10.05;7.38;;;9.50;99.90;;;;;;5042233;28;20472;-43
2023/04/24 08:17:08;;;;;;;11.15;7.57;;;9.40;99.90;;;;;;5042183;28;20070;-43
2023/04/24 08:19:34;;;;;;;10.13;7.60;;;9.30;99.90;;;;;;5041893;28;20423;-43
2023/04/24 08:21:59;;;;;;;10.20;8.27;;;9.30;99.90;;;;;;5040612;28;20437;-44
2023/04/24 08:24:25;;;;;;;9.68;7.25;;;9.30;99.90;;;;;;5041759;28;20254;-43
2023/04/24 08:26:51;;;;;;;11.15;7.53;;;9.30;99.90;;;;;;5040246;28;20127;-42
2023/04/24 08:29:16;;;;;;;10.60;7.88;;;9.30;99.90;;;;;;5042478;28;20060;-43
2023/04/24 08:31:42;;;;;;;13.05;8.00;;;9.30;99.90;;;;;;5041680;28;20135;-43
2023/04/24 08:34:08;;;;;;;12.68;8.02;;;9.20;99.90;;;;;;5041158;28;20102;-43
2023/04/24 08:36:37;;;;;;;12.70;7.50;;;9.20;99.90;;;;;;5041968;28;20018;-42
2023/04/24 08:39:03;;;;;;;9.57;7.53;;;9.30;99.90;;;;;;5030889;28;20393;-43
2023/04/24 08:41:29;;;;;;;10.38;6.80;;;9.30;99.90;;;;;;5041086;28;20028;-43
2023/04/24 08:43:57;;;;;;;11.25;6.78;;;9.40;99.90;;;;;;5041576;28;20033;-44
2023/04/24 08:46:24;;;;;;;10.85;7.72;;;9.40;99.90;;;;;;5042001;28;20100;-43
2023/04/24 08:48:51;;;;;;;10.18;7.03;;;9.50;99.90;;;;;;5039745;28;20465;-44
2023/04/24 08:51:17;;;;;;;9.55;7.00;;;9.50;99.90;;;;;;5040352;28;20053;-44
2023/04/24 08:53:44;;;;;;;8.57;6.03;;;9.40;99.90;;;;;;5041026;28;20396;-44
2023/04/24 08:56:13;;;;;;;11.80;7.20;;;9.40;99.90;;;;;;5041286;28;20108;-44
2023/04/24 08:58:43;;;;;;;8.68;6.90;;;9.40;99.90;;;;;;5049157;28;20029;-47
2023/04/24 09:01:12;;;;;;;11.07;6.72;;;9.40;99.90;;;;;;5040942;28;20102;-44
2023/04/24 09:03:38;;;;;;;8.57;5.90;;;9.40;99.90;;;;;;5040766;28;20033;-44
2023/04/24 09:06:05;;;;;;;7.72;5.10;;;9.40;99.90;;;;;;5041000;28;20020;-43
2023/04/24 09:08:32;;;;;;;5.85;4.07;;;9.30;99.90;;;;;;5040879;28;20489;-44
2023/04/24 09:10:58;;;;;;;4.93;3.38;;;9.30;99.90;;;;;;5041569;28;20021;-42
2023/04/24 09:13:24;;;;;;;6.22;3.45;;;9.30;99.90;;;;;;5041192;28;20075;-43
2023/04/24 09:15:50;;;;;;;7.20;3.90;;;9.30;99.90;;;;;;5040968;28;20021;-42
2023/04/24 09:18:19;;;;;;;6.25;3.42;;;9.40;99.90;;;;;;5040381;28;20029;-43
2023/04/24 09:21:04;;;;;;;6.88;3.70;;;9.40;99.90;;;;;;5040463;28;20693;-42
2023/04/24 09:23:31;;;;;;;9.10;3.75;;;9.40;99.90;;;;;;5040702;28;20021;-42
2023/04/24 09:25:59;;;;;;;5.82;3.20;;;9.50;99.90;;;;;;5040740;28;20025;-43
2023/04/24 09:28:30;;;;;;;8.23;3.40;;;9.40;99.90;;;;;;5040508;28;20113;-44
2023/04/24 09:31:10;;;;;;;10.32;3.55;;;9.50;99.90;;;;;;5040021;28;20469;-44
2023/04/24 09:33:36;;;;;;;8.57;2.80;;;9.60;99.90;;;;;;5040801;28;20037;-44
2023/04/24 09:36:21;;;;;;;11.13;3.38;;;9.60;99.90;;;;;;5040477;28;20032;-43
2023/04/24 09:38:53;;;;;;;10.18;2.78;;;9.70;99.90;;;;;;5039520;28;20036;-44
2023/04/24 09:41:19;;;;;;;6.25;2.67;;;9.80;99.90;;;;;;5040756;28;20032;-44
2023/04/24 09:43:45;;;;;;;9.00;3.10;;;9.80;99.90;;;;;;5040325;28;20021;-43
2023/04/24 09:46:10;;;;;;;9.27;3.10;;;9.80;99.90;;;;;;5041394;28;20034;-42
2023/04/24 09:48:37;;;;;;;6.78;2.72;;;9.80;99.90;;;;;;5040642;28;20516;-44
2023/04/24 09:51:10;;;;;;;8.68;2.88;;;9.80;99.90;;;;;;5039606;28;20095;-43
2023/04/24 09:53:36;;;;;;;8.68;2.95;;;9.90;99.90;;;;;;5040875;28;20040;-42
2023/04/24 09:56:09;;;;;;;11.57;2.47;;;10.10;99.90;;;;;;5040424;28;20036;-44
2023/04/24 09:58:36;;;;;;;8.70;2.58;;;10.20;99.90;;;;;;5039917;28;20021;-43
2023/04/24 10:01:02;;;;;;;8.40;2.40;;;10.20;99.90;;;;;;5040361;28;20029;-43
2023/04/24 10:03:36;;;;;;;9.25;2.95;;;10.20;99.90;;;;;;5040195;28;20399;-43
2023/04/24 10:06:08;;;;;;;9.15;2.50;;;10.30;99.90;;;;;;5039510;28;20025;-43
2023/04/24 10:08:35;;;;;;;5.15;2.45;;;10.40;99.90;;;;;;5040800;28;20589;-43
2023/04/24 10:11:01;;;;;;;8.55;3.13;;;10.50;99.90;;;;;;5040396;28;20041;-43
2023/04/24 10:13:28;;;;;;;7.10;2.95;;;10.50;99.90;;;;;;5039441;28;20653;-44
2023/04/24 10:16:00;;;;;;;6.50;2.75;;;10.60;99.90;;;;;;5040036;28;20021;-43
2023/04/24 10:18:27;;;;;;;10.95;2.78;;;10.60;99.90;;;;;;5039600;28;20052;-43
2023/04/24 10:20:54;;;;;;;11.20;2.88;;;10.70;99.90;;;;;;5040158;28;20129;-43
2023/04/24 10:23:20;;;;;;;5.57;2.55;;;10.80;99.90;;;;;;5041012;28;20112;-43
2023/04/24 10:25:50;;;;;;;6.18;2.83;;;10.90;99.90;;;;;;5037740;28;20027;-44
2023/04/24 10:28:17;;;;;;;8.82;2.72;;;11.00;99.90;;;;;;5035823;28;20036;-44
2023/04/24 10:30:43;;;;;;;8.50;2.80;;;11.00;99.90;;;;;;5031660;28;20656;-43
2023/04/24 10:33:08;;;;;;;12.40;3.05;;;11.10;99.90;;;;;;5039904;28;20036;-44
2023/04/24 10:35:44;;;;;;;5.60;2.70;;;11.20;99.90;;;;;;5040072;28;20021;-42
2023/04/24 10:38:13;;;;;;;9.85;2.88;;;11.20;99.90;;;;;;5039755;28;20037;-43
2023/04/24 10:40:39;;;;;;;8.45;2.50;;;11.20;99.90;;;;;;5039480;28;20117;-43
2023/04/24 10:43:11;;;;;;;6.85;2.60;;;11.30;99.90;;;;;;5039576;28;20665;-44
2023/04/24 10:45:38;;;;;;;3.78;2.13;;;11.40;99.90;;;;;;5039233;28;20575;-44
2023/04/24 10:48:13;;;;;;;7.00;2.40;;;11.50;99.90;;;;;;5038794;28;20028;-43
2023/04/24 10:50:51;;;;;;;7.07;2.80;;;11.50;99.90;;;;;;5039577;28;20045;-44
2023/04/24 10:53:19;;;;;;;8.60;2.50;;;11.50;99.90;;;;;;5039447;28;20057;-43
2023/04/24 10:55:57;;;;;;;5.38;2.08;;;11.40;99.90;;;;;;5039688;28;20032;-43
2023/04/24 10:58:23;;;;;;;8.50;2.40;;;11.40;99.90;;;;;;5038089;28;20070;-44
2023/04/24 11:00:57;;;;;;;5.82;2.15;;;11.40;99.90;;;;;;5039239;28;20041;-44
2023/04/24 11:03:32;;;;;;;7.95;2.13;;;11.40;99.90;;;;;;5039559;28;20031;-44
2023/04/24 11:06:06;;;;;;;6.22;1.73;;;11.40;99.90;;;;;;5039926;28;20032;-44
2023/04/24 11:08:45;;;;;;;5.30;1.80;;;11.30;99.90;;;;;;5038473;28;20044;-43
2023/04/24 11:11:18;;;;;;;5.10;1.70;;;11.10;99.90;;;;;;5039992;28;20029;-43
2023/04/24 11:13:55;;;;;;;;;;;10.90;99.90;;;;;;5043692;28;20037;-43
2023/04/24 11:16:33;;;;;;;3.90;1.35;;;10.80;99.90;;;;;;5043947;28;19904;-43
2023/04/24 11:19:07;;;;;;;2.97;1.40;;;10.70;99.90;;;;;;5040005;28;20022;-43
2023/04/24 11:21:44;;;;;;;5.10;1.60;;;10.80;99.90;;;;;;5042869;28;20025;-43
2023/04/24 11:24:27;;;;;;;4.07;1.27;;;11.00;99.90;;;;;;5040800;28;20028;-43
2023/04/24 11:26:57;;;;;;;3.67;1.40;;;11.10;99.90;;;;;;5043515;28;20032;-43
2023/04/24 11:29:42;;;;;;;1.92;1.00;;;11.30;99.90;;;;;;5043066;28;20442;-44
2023/04/24 11:32:16;;;;;;;1.77;0.80;;;11.40;99.90;;;;;;5043816;28;20333;-43
2023/04/24 11:34:48;;;;;;;2.53;1.10;;;11.60;99.90;;;;;;5043474;28;20383;-42
2023/04/24 11:37:13;;;;;;;3.35;1.00;;;11.70;99.90;;;;;;5043489;28;20095;-42
2023/04/24 11:39:40;;;;;;;2.45;0.95;;;11.80;99.90;;;;;;5043123;28;20116;-43
2023/04/24 11:42:07;;;;;;;2.38;0.90;;;11.70;99.90;;;;;;5043163;28;20025;-43
2023/04/24 11:44:34;;;;;;;2.50;0.82;;;11.80;99.90;;;;;;5041896;28;20129;-44
2023/04/24 11:46:59;;;;;;;1.77;0.80;;;12.00;99.90;;;;;;5042905;28;20029;-43
2023/04/24 11:49:25;;;;;;;2.20;0.90;;;12.00;99.90;;;;;;5042642;28;20440;-43
2023/04/24 11:51:55;;;;;;;3.47;1.35;;;12.10;99.90;;;;;;5042643;28;20041;-43
2023/04/24 11:54:30;;;;;;;2.88;0.70;;;12.00;99.90;;;;;;5043627;28;20033;-43
2023/04/24 11:56:57;;;;;;;3.88;1.73;;;11.80;99.90;;;;;;5041975;28;20017;-43
2023/04/24 11:59:22;;;;;;;2.25;1.10;;;11.70;99.90;;;;;;5042916;28;20028;-43
2023/04/24 12:01:49;;;;;;;2.63;1.15;;;11.50;99.90;;;;;;5042776;28;20056;-44
2023/04/24 12:04:17;;;;;;;3.47;1.05;;;11.40;99.90;;;;;;5042547;28;20384;-44
2023/04/24 12:07:03;;;;;;;2.92;0.80;;;11.20;99.90;;;;;;5042896;28;20952;-43
2023/04/24 12:09:39;;;;;;;1.30;0.88;;;11.10;99.90;;;;;;5041720;28;20166;-44
2023/04/24 12:12:06;;;;;;;1.48;0.60;;;11.00;99.90;;;;;;5041710;28;20052;-43
2023/04/24 12:14:32;;;;;;;1.05;0.70;;;10.90;99.90;;;;;;5042506;28;20041;-45
2023/04/24 12:16:57;;;;;;;1.90;0.90;;;10.80;99.90;;;;;;5041943;28;20028;-43
2023/04/24 12:19:23;;;;;;;1.95;0.70;;;10.90;99.90;;;;;;5040881;28;20071;-43
2023/04/24 12:22:03;;;;;;;1.83;0.70;;;11.10;99.90;;;;;;5041981;28;20057;-43
2023/04/24 12:24:30;;;;;;;3.28;0.80;;;11.20;99.90;;;;;;5041083;28;20028;-43
2023/04/24 12:26:56;;;;;;;2.80;0.93;;;11.20;99.90;;;;;;5041539;28;20024;-43
2023/04/24 12:29:25;;;;;;;2.70;1.00;;;11.30;99.90;;;;;;5041960;28;20033;-43
2023/04/24 12:31:51;;;;;;;3.70;0.90;;;11.30;99.90;;;;;;5041659;28;20492;-43
2023/04/24 12:34:25;;;;;;;3.67;1.23;;;11.40;99.90;;;;;;5041938;28;20037;-43
2023/04/24 12:36:51;;;;;;;1.60;0.70;;;11.50;99.90;;;;;;5041972;28;20459;-43
2023/04/24 12:39:19;;;;;;;3.53;0.70;;;11.60;99.90;;;;;;5042007;28;20107;-43
2023/04/24 12:42:01;;;;;;;1.98;0.82;;;11.70;99.90;;;;;;5041759;28;20092;-44
2023/04/24 12:44:34;;;;;;;2.58;0.90;;;11.70;99.90;;;;;;5042087;28;20107;-43